Terminal Aerodrome Forecast
Issued by NWS Duluth, MN

Home | Current Version | Previous Version | Text Only | Print | Product List | Glossary On
Versions: 1 2 3 4 5 6 7 8 9 10 11 12 13 14 15 16 17 18 19 20 21 22 23 24 25 26 27 28 29 30 31 32
000
FTUS43 KDLH 290500
TAFDLH
TAF
KDLH 290521Z 2906/3006 29007KT 1 1/2SM -FZDZSN BR OVC005
     FM291000 31014G26KT 5SM -SN BLSN SCT008 OVC018
     FM291900 32012G18KT P6SM OVC023
     FM300300 29008KT P6SM OVC014=

USA.gov is the U.S. government's official web portal to all federal, state and local government web resources and services.